ノヴォシビルスク の空港の天気 - METARとTAF

トルマチェヴォ空港(ノヴォシビルスク) ( UNNT / OVB ) - ロシア ノヴォシビルスク
飛行場実況気象(Metar)
観測時間08/26 01:00 OMST (08/25 19:00 UTC)
風向・風速不定 1m/s
視程10km以上
天気現象
なし
気温9℃
湿度93%
気圧1018hPa
METARUNNT 251900Z VRB01MPS CAVOK 09/08 Q1018 R25/090070 R16/090070 NOSIG RMK QFE754/1005
過去の天気等 Google飛行場航空写真 Wunderground天気予報

過去48時間のMETAR

飛行場予報(TAF)
発表時間: 8/25 23:00 OMST (8/25 17:00 UTC)
予報対象時間: 26日0時 OMST ~ 27日0時 OMST
風向・風速南南東 3m/s 瞬間風速 8m/s
視程10km以上
なし
26日0時 OMST ~ 26日9時 OMST に一時的に
視程300m
天気現象
全天の8割程度の雲 雲底高度 60m
26日9時 OMST ~ 26日10時 OMST に一時的に
視程3100m
天気現象もや
26日10時 OMST ~ 26日12時 OMST に徐々に
全天の4割程度の積乱雲 雲底高度 1220m
TAF UNNT 251700Z 2518/2618 16003G08MPS CAVOK
TEMPO 2518/2603 0300 FG BKN002
TEMPO 2603/2604 3100 BR
BECMG 2604/2606 SCT040CB